Time;durP1;ratioP1;P1;durP2;ratioP2;P2;SDS_P1;SDS_P2;PMS_P1;PMS_P2;Temp;Humidity;BMP_temperature;BMP_pressure;BME280_temperature;BME280_humidity;BME280_pressure;Samples;Min_cycle;Max_cycle;Signal;HPM_P1;HPM_P2
2023/03/26 00:01:45;;;;;;;;;;;5.50;99.90;;;;;;4985115;28;19927;-93
2023/03/26 00:04:13;;;;;;;;;;;7.10;99.90;;;;;;4987125;28;19933;-93
2023/03/26 00:06:40;;;;;;;;;;;7.00;99.90;;;;;;5002084;28;19926;-95
2023/03/26 00:09:07;;;;;;;;;;;7.00;99.90;;;;;;5019181;28;19932;-93
2023/03/26 00:11:32;;;;;;;;;;;7.00;99.90;;;;;;5000098;28;19965;-93
2023/03/26 00:13:58;;;;;;;;;;;6.90;99.90;;;;;;5010792;28;19926;-94
2023/03/26 00:16:28;;;;;;;;;;;6.90;99.90;;;;;;4981908;28;21098;-94
2023/03/26 00:18:54;;;;;;;;;;;6.80;99.90;;;;;;4985404;28;19926;-93
2023/03/26 00:21:21;;;;;;;;;;;6.80;99.90;;;;;;5002161;28;19926;-96
2023/03/26 00:23:48;;;;;;;;;;;6.80;99.90;;;;;;5013780;28;19926;-94
2023/03/26 00:26:15;;;;;;;;;;;6.70;99.90;;;;;;4990448;28;19925;-94
2023/03/26 00:28:41;;;;;;;;;;;6.70;99.90;;;;;;5003158;28;19949;-96
2023/03/26 00:31:08;;;;;;;;;;;6.70;99.90;;;;;;4972071;28;20004;-94
2023/03/26 00:33:37;;;;;;;;;;;6.60;99.90;;;;;;4992922;28;19926;-94
2023/03/26 00:36:04;;;;;;;;;;;6.60;99.90;;;;;;5011114;28;20334;-93
2023/03/26 00:38:30;;;;;;;;;;;6.60;99.90;;;;;;5003131;28;20028;-95
2023/03/26 00:40:58;;;;;;;;;;;6.60;99.90;;;;;;5011406;28;20400;-94
2023/03/26 00:43:25;;;;;;;;;;;6.70;99.90;;;;;;5003842;28;19926;-95
2023/03/26 00:45:52;;;;;;;;;;;6.70;99.90;;;;;;4970197;28;19926;-94
2023/03/26 00:48:19;;;;;;;;;;;6.70;99.90;;;;;;5004184;28;19932;-95
2023/03/26 00:50:45;;;;;;;;;;;6.70;99.90;;;;;;5002058;28;19929;-95
2023/03/26 00:53:12;;;;;;;;;;;6.70;99.90;;;;;;5011630;28;19941;-94
2023/03/26 00:55:42;;;;;;;;;;;6.70;99.90;;;;;;4994381;28;19932;-95
2023/03/26 00:58:10;;;;;;;;;;;6.70;99.90;;;;;;4997079;28;19956;-95
2023/03/26 01:00:49;;;;;;;;;;;5.20;99.90;;;;;;5015740;28;19925;-93
2023/03/26 01:03:17;;;;;;;;;;;6.60;99.90;;;;;;5009199;28;19930;-93
2023/03/26 01:05:47;;;;;;;;;;;6.60;99.90;;;;;;4991969;28;19925;-93
2023/03/26 01:08:19;;;;;;;;;;;6.60;99.90;;;;;;4997622;28;20012;-93
2023/03/26 01:10:49;;;;;;;;;;;6.60;99.90;;;;;;5016375;28;20259;-93
2023/03/26 01:13:19;;;;;;;;;;;6.50;99.90;;;;;;4979449;28;20254;-95
2023/03/26 01:15:49;;;;;;;;;;;6.50;99.90;;;;;;4992559;28;20061;-94
2023/03/26 01:18:25;;;;;;;;;;;6.60;99.90;;;;;;4995480;28;19929;-93
2023/03/26 01:20:57;;;;;;;;;;;6.50;99.90;;;;;;4987526;28;19957;-93
2023/03/26 01:23:29;;;;;;;;;;;6.50;99.90;;;;;;5000258;28;19969;-93
2023/03/26 01:25:59;;;;;;;;;;;6.50;99.90;;;;;;4998141;28;19976;-94
2023/03/26 01:28:27;;;;;;;;;;;6.50;99.90;;;;;;4994371;28;19952;-94
2023/03/26 01:31:00;;;;;;;;;;;6.50;99.90;;;;;;5015653;28;19925;-95
2023/03/26 01:33:32;;;;;;;;;;;6.40;99.90;;;;;;5007680;28;19926;-94
2023/03/26 01:36:00;;;;;;;;;;;6.50;99.90;;;;;;4997923;28;20384;-95
2023/03/26 01:38:45;;;;;;;;;;;6.40;99.90;;;;;;4989977;28;20456;-94
2023/03/26 01:41:10;;;;;;;;;;;6.40;99.90;;;;;;4987154;28;20393;-93
2023/03/26 01:43:42;;;;;;;;;;;6.40;99.90;;;;;;5006981;28;19926;-94
2023/03/26 01:46:08;;;;;;;;;;;6.50;99.90;;;;;;4993204;28;19926;-93
2023/03/26 01:48:40;;;;;;;;;;;6.40;99.90;;;;;;5007397;28;20632;-94
2023/03/26 01:51:06;;;;;;;;;;;6.40;99.90;;;;;;4981528;28;19930;-95
2023/03/26 01:53:33;;;;;;;;;;;6.40;99.90;;;;;;4999562;28;19926;-94
2023/03/26 01:56:05;;;;;;;;;;;6.40;99.90;;;;;;5018129;28;19933;-94
2023/03/26 01:58:35;;;;;;;;;;;8.00;99.90;;;;;;4992298;28;19932;-94
2023/03/26 02:01:04;;;;;;;;;;;6.30;99.90;;;;;;4995464;28;19926;-94
2023/03/26 02:03:31;;;;;;;;;;;6.30;99.90;;;;;;5016682;28;19926;-94
2023/03/26 02:06:05;;;;;;;;;;;6.20;99.90;;;;;;4994503;28;19926;-95
2023/03/26 02:08:36;;;;;;;;;;;6.20;99.90;;;;;;4981140;28;20006;-96
2023/03/26 02:11:09;;;;;;;;;;;6.10;99.90;;;;;;5014669;28;19925;-95
2023/03/26 02:13:35;;;;;;;;;;;6.00;99.90;;;;;;5012335;28;19929;-94
2023/03/26 02:16:03;;;;;;;;;;;6.20;99.90;;;;;;4970294;28;19948;-94
2023/03/26 02:18:35;;;;;;;;;;;5.80;99.90;;;;;;5005934;28;19926;-95
2023/03/26 02:21:05;;;;;;;;;;;5.80;99.90;;;;;;5011102;28;19925;-94
2023/03/26 02:23:34;;;;;;;;;;;5.60;99.90;;;;;;4992450;28;19936;-94
2023/03/26 02:26:09;;;;;;;;;;;5.90;99.90;;;;;;4996941;28;19948;-94
2023/03/26 02:28:36;;;;;;;;;;;5.50;99.90;;;;;;4982922;28;19930;-95
2023/03/26 02:31:02;;;;;;;;;;;5.50;99.90;;;;;;4990225;28;19926;-94
2023/03/26 02:33:28;;;;;;;;;;;4.50;99.90;;;;;;4973541;28;19952;-96
2023/03/26 02:35:58;;;;;;;;;;;5.30;99.90;;;;;;4992371;28;19926;-94
2023/03/26 02:38:37;;;;;;;;;;;5.40;99.90;;;;;;4992055;28;19926;-94
2023/03/26 02:41:03;;;;;;;;;;;5.30;99.90;;;;;;4995945;28;19948;-94
2023/03/26 02:43:28;;;;;;;;;;;5.30;99.90;;;;;;4997127;28;20292;-94
2023/03/26 02:45:54;;;;;;;;;;;5.30;99.90;;;;;;4980829;28;19981;-94
2023/03/26 02:48:20;;;;;;;;;;;5.40;99.90;;;;;;4978422;28;19977;-94
2023/03/26 02:50:49;;;;;;;;;;;5.30;99.90;;;;;;4993317;28;19925;-95
2023/03/26 02:53:17;;;;;;;;;;;5.30;99.90;;;;;;5007013;28;20024;-95
2023/03/26 02:55:43;;;;;;;;;;;5.60;99.90;;;;;;5004554;28;19926;-96
2023/03/26 02:58:11;;;;;;;;;;;5.30;99.90;;;;;;4989284;28;20234;-94
2023/03/26 03:00:36;;;;;;;;;;;5.60;99.90;;;;;;4988611;28;19926;-95
2023/03/26 03:03:03;;;;;;;;;;;6.00;99.90;;;;;;4993681;28;19954;-93
2023/03/26 03:05:30;;;;;;;;;;;5.70;99.90;;;;;;5000598;28;19985;-94
2023/03/26 03:07:56;;;;;;;;;;;5.50;99.90;;;;;;4983831;28;19988;-94
2023/03/26 03:10:23;;;;;;;;;;;5.60;99.90;;;;;;4995018;28;20022;-94
2023/03/26 03:12:49;;;;;;;;;;;5.60;99.90;;;;;;5000327;28;19926;-94
2023/03/26 03:15:15;;;;;;;;;;;5.90;99.90;;;;;;4992287;28;19937;-94
2023/03/26 03:17:40;;;;;;;;;;;5.80;99.90;;;;;;4969615;28;19981;-93
2023/03/26 03:20:08;;;;;;;;;;;5.70;99.90;;;;;;4979294;28;19925;-93
2023/03/26 03:22:34;;;;;;;;;;;5.80;99.90;;;;;;4995126;28;20016;-92
2023/03/26 03:25:03;;;;;;;;;;;6.00;99.90;;;;;;4978778;28;20381;-93
2023/03/26 03:27:29;;;;;;;;;;;5.90;99.90;;;;;;5013694;28;20377;-92
2023/03/26 03:29:55;;;;;;;;;;;6.10;99.90;;;;;;4997056;28;19925;-94
2023/03/26 03:32:21;;;;;;;;;;;5.90;99.90;;;;;;4993345;28;20309;-93
2023/03/26 03:34:49;;;;;;;;;;;5.90;99.90;;;;;;4999962;28;19926;-94
2023/03/26 03:37:15;;;;;;;;;;;6.00;99.90;;;;;;5008340;28;19930;-95
2023/03/26 03:39:41;;;;;;;;;;;5.90;99.90;;;;;;5000942;28;19932;-94
2023/03/26 03:42:07;;;;;;;;;;;5.90;99.90;;;;;;5019120;28;20012;-95
2023/03/26 03:44:32;;;;;;;;;;;5.90;99.90;;;;;;4986174;28;19980;-93
2023/03/26 03:46:58;;;;;;;;;;;6.00;99.90;;;;;;4989345;28;19926;-94
2023/03/26 03:49:23;;;;;;;;;;;5.90;99.90;;;;;;4993951;28;19925;-93
2023/03/26 03:51:49;;;;;;;;;;;5.90;99.90;;;;;;5003396;28;19925;-93
2023/03/26 03:54:15;;;;;;;;;;;5.80;99.90;;;;;;4973251;28;19930;-94
2023/03/26 03:56:40;;;;;;;;;;;5.70;99.90;;;;;;5014459;28;19925;-94
2023/03/26 03:59:07;;;;;;;;;;;7.80;99.90;;;;;;5005345;28;19980;-94
2023/03/26 04:01:33;;;;;;;;;;;5.60;99.90;;;;;;4986059;28;19925;-94
2023/03/26 04:03:59;;;;;;;;;;;5.60;99.90;;;;;;4994605;28;19933;-94
2023/03/26 04:06:29;;;;;;;;;;;5.50;99.90;;;;;;4981613;28;19929;-94
2023/03/26 04:08:55;;;;;;;;;;;5.50;99.90;;;;;;4992382;28;19929;-93
2023/03/26 04:11:20;;;;;;;;;;;5.40;99.90;;;;;;4980491;28;19936;-93
2023/03/26 04:13:46;;;;;;;;;;;5.40;99.90;;;;;;4995418;28;20004;-93
2023/03/26 04:16:12;;;;;;;;;;;6.20;99.90;;;;;;4979166;28;20385;-94
2023/03/26 04:18:37;;;;;;;;;;;5.20;99.90;;;;;;4994573;28;20361;-94
2023/03/26 04:21:04;;;;;;;;;;;5.00;99.90;;;;;;4969348;28;19926;-92
2023/03/26 04:23:30;;;;;;;;;;;5.40;99.90;;;;;;5005824;28;20016;-94
2023/03/26 04:25:57;;;;;;;;;;;4.90;99.90;;;;;;4985363;28;19926;-93
2023/03/26 04:28:27;;;;;;;;;;;4.80;99.90;;;;;;4994310;28;19937;-94
2023/03/26 04:30:53;;;;;;;;;;;4.80;99.90;;;;;;5008212;28;19925;-93
2023/03/26 04:33:19;;;;;;;;;;;4.80;99.90;;;;;;4986534;28;19965;-94
2023/03/26 04:35:47;;;;;;;;;;;4.70;99.90;;;;;;4988654;28;19949;-94
2023/03/26 04:38:15;;;;;;;;;;;4.70;99.90;;;;;;4995536;28;19926;-94
2023/03/26 04:40:42;;;;;;;;;;;5.00;99.90;;;;;;4995428;28;20460;-94
2023/03/26 04:43:16;;;;;;;;;;;4.70;99.90;;;;;;5007407;28;19997;-95
2023/03/26 04:45:42;;;;;;;;;;;4.90;99.90;;;;;;4995741;28;19925;-94
2023/03/26 04:48:13;;;;;;;;;;;5.30;99.90;;;;;;5012449;28;19932;-94
2023/03/26 04:50:42;;;;;;;;;;;4.80;99.90;;;;;;4989096;28;19996;-95
2023/03/26 04:53:20;;;;;;;;;;;4.80;99.90;;;;;;4999435;28;19925;-94
2023/03/26 04:55:57;;;;;;;;;;;4.80;99.90;;;;;;4992396;28;19933;-95
2023/03/26 04:58:31;;;;;;;;;;;4.80;99.90;;;;;;4992793;28;20646;-93
2023/03/26 05:00:59;;;;;;;;;;;4.90;99.90;;;;;;5003594;28;19933;-94
2023/03/26 05:03:30;;;;;;;;;;;4.90;99.90;;;;;;4976201;28;20116;-94
2023/03/26 05:05:59;;;;;;;;;;;4.70;99.90;;;;;;4994663;28;20000;-93
2023/03/26 05:08:27;;;;;;;;;;;4.70;99.90;;;;;;4990870;28;20025;-94
2023/03/26 05:10:56;;;;;;;;;;;4.70;99.90;;;;;;5011948;28;19925;-93
2023/03/26 05:13:22;;;;;;;;;;;4.90;99.90;;;;;;4971722;28;19930;-94
2023/03/26 05:15:48;;;;;;;;;;;4.70;99.90;;;;;;5014391;28;20285;-93
2023/03/26 05:18:13;;;;;;;;;;;4.70;99.90;;;;;;4983796;28;19926;-93
2023/03/26 05:20:40;;;;;;;;;;;4.70;99.90;;;;;;4997571;28;19932;-94
2023/03/26 05:23:06;;;;;;;;;;;5.00;99.90;;;;;;5011009;28;19926;-94
2023/03/26 05:25:33;;;;;;;;;;;4.70;99.90;;;;;;4995476;28;19940;-93
2023/03/26 05:27:59;;;;;;;;;;;4.70;99.90;;;;;;4994705;28;20441;-94
2023/03/26 05:30:25;;;;;;;;;;;5.00;99.90;;;;;;5007926;28;19940;-94
2023/03/26 05:32:51;;;;;;;;;;;4.70;99.90;;;;;;4989811;28;19925;-95
2023/03/26 05:35:17;;;;;;;;;;;4.70;99.90;;;;;;5006233;28;19925;-94
2023/03/26 05:37:44;;;;;;;;;;;5.20;99.90;;;;;;4993096;28;19933;-94
2023/03/26 05:40:11;;;;;;;;;;;4.80;99.90;;;;;;4981777;28;19930;-93
2023/03/26 05:42:37;;;;;;;;;;;5.20;99.90;;;;;;5001298;28;19976;-93
2023/03/26 05:45:04;;;;;;;;;;;4.70;99.90;;;;;;4987051;28;19926;-94
2023/03/26 05:47:30;;;;;;;;;;;4.70;99.90;;;;;;4994035;28;19930;-94
2023/03/26 05:49:56;;;;;;;;;;;4.80;99.90;;;;;;4992213;28;19926;-94
2023/03/26 05:52:22;;;;;;;;;;;4.90;99.90;;;;;;5010309;28;19925;-94
2023/03/26 05:54:47;;;;;;;;;;;5.00;99.90;;;;;;5001654;28;19937;-93
2023/03/26 05:57:13;;;;;;;;;;;5.10;99.90;;;;;;5007621;28;20005;-94
2023/03/26 05:59:39;;;;;;;;;;;5.10;99.90;;;;;;4977037;28;19965;-94
2023/03/26 06:02:05;;;;;;;;;;;5.10;99.90;;;;;;4994113;28;19936;-94
2023/03/26 06:04:30;;;;;;;;;;;5.20;99.90;;;;;;4974052;28;19933;-94
2023/03/26 06:06:56;;;;;;;;;;;5.20;99.90;;;;;;4994829;28;19926;-94
2023/03/26 06:09:22;;;;;;;;;;;5.80;99.90;;;;;;5003190;28;19929;-94
2023/03/26 06:11:48;;;;;;;;;;;5.60;99.90;;;;;;4995272;28;19968;-93
2023/03/26 06:14:14;;;;;;;;;;;7.30;99.90;;;;;;4984150;28;19934;-93
2023/03/26 06:16:40;;;;;;;;;;;5.40;99.90;;;;;;5005716;28;19932;-93
2023/03/26 06:19:05;;;;;;;;;;;5.50;99.90;;;;;;4997101;28;19925;-93
2023/03/26 06:21:31;;;;;;;;;;;5.90;99.90;;;;;;4997571;28;19925;-95
2023/03/26 06:23:56;;;;;;;;;;;5.70;99.90;;;;;;4994467;28;19960;-95
2023/03/26 06:26:22;;;;;;;;;;;5.70;99.90;;;;;;4986060;28;20417;-93
2023/03/26 06:28:48;;;;;;;;;;;6.10;99.90;;;;;;4985588;28;19966;-95
2023/03/26 06:31:15;;;;;;;;;;;5.60;99.90;;;;;;4988312;28;20010;-95
2023/03/26 06:33:41;;;;;;;;;;;6.60;99.90;;;;;;5005065;28;19933;-95
2023/03/26 06:36:07;;;;;;;;;;;6.10;99.90;;;;;;5001690;28;19926;-93
2023/03/26 06:38:33;;;;;;;;;;;5.80;99.90;;;;;;4990610;28;19944;-95
2023/03/26 06:41:02;;;;;;;;;;;5.90;99.90;;;;;;4965391;28;19965;-94
2023/03/26 06:43:32;;;;;;;;;;;5.90;99.90;;;;;;4989861;28;19932;-93
2023/03/26 06:46:01;;;;;;;;;;;6.10;99.90;;;;;;4975657;28;19965;-94
2023/03/26 06:48:27;;;;;;;;;;;6.20;99.90;;;;;;4980549;28;19972;-94
2023/03/26 06:50:52;;;;;;;;;;;6.10;99.90;;;;;;4984308;28;19930;-94
2023/03/26 06:53:18;;;;;;;;;;;7.30;99.90;;;;;;4985511;28;19981;-93
2023/03/26 06:55:44;;;;;;;;;;;6.00;99.90;;;;;;4969102;28;19929;-94
2023/03/26 06:58:10;;;;;;;;;;;6.10;99.90;;;;;;4990473;28;19964;-93
2023/03/26 07:00:36;;;;;;;;;;;6.10;99.90;;;;;;5006748;28;19925;-94
2023/03/26 07:03:03;;;;;;;;;;;6.20;99.90;;;;;;4973822;28;20385;-93
2023/03/26 07:05:28;;;;;;;;;;;6.10;99.90;;;;;;5006514;28;19925;-93
2023/03/26 07:07:54;;;;;;;;;;;6.10;99.90;;;;;;4972260;28;20006;-95
2023/03/26 07:10:19;;;;;;;;;;;6.20;99.90;;;;;;4960035;28;19925;-94
2023/03/26 07:12:45;;;;;;;;;;;6.20;99.90;;;;;;4953999;28;19942;-93
2023/03/26 07:15:11;;;;;;;;;;;6.30;99.90;;;;;;4968567;28;19926;-93
2023/03/26 07:17:37;;;;;;;;;;;6.40;99.90;;;;;;4975175;28;19977;-93
2023/03/26 07:20:03;;;;;;;;;;;6.40;99.90;;;;;;4956551;28;19926;-94
2023/03/26 07:22:29;;;;;;;;;;;6.30;99.90;;;;;;4970132;28;19941;-93
2023/03/26 07:24:55;;;;;;;;;;;6.70;99.90;;;;;;4971791;28;19926;-94
2023/03/26 07:27:31;;;;;;;;;;;6.50;99.90;;;;;;4973905;28;20330;-93
2023/03/26 07:29:56;;;;;;;;;;;7.10;99.90;;;;;;4986466;28;19926;-93
2023/03/26 07:32:42;;;;;;;;;;;6.20;99.90;;;;;;4977937;28;19993;-92
2023/03/26 07:35:29;;;;;;;;;;;6.60;99.90;;;;;;4992038;28;19927;-95
2023/03/26 07:38:13;;;;;;;;;;;6.30;99.90;;;;;;4969303;28;19930;-94
2023/03/26 07:40:42;;;;;;;;;;;6.50;99.90;;;;;;4976329;28;20008;-95
2023/03/26 07:43:26;;;;;;;;;;;6.80;99.90;;;;;;4992627;28;19926;-94
2023/03/26 07:45:53;;;;;;;;;;;6.50;99.90;;;;;;4980901;28;20382;-94
2023/03/26 07:48:20;;;;;;;;;;;6.70;99.90;;;;;;4983323;28;19934;-94
2023/03/26 07:50:46;;;;;;;;;;;7.60;99.90;;;;;;4980928;28;19930;-94
2023/03/26 07:53:12;;;;;;;;;;;7.10;99.90;;;;;;4966214;28;20405;-95
2023/03/26 07:55:42;;;;;;;;;;;6.80;99.90;;;;;;4972441;28;19933;-92
2023/03/26 07:58:17;;;;;;;;;;;7.00;99.90;;;;;;4990683;28;19961;-94
2023/03/26 08:01:06;;;;;;;;;;;6.80;99.90;;;;;;4987539;28;19930;-94
2023/03/26 08:03:41;;;;;;;;;;;7.10;99.90;;;;;;4967833;28;19934;-94
2023/03/26 08:06:06;;;;;;;;;;;6.90;99.90;;;;;;4981100;28;20064;-93
2023/03/26 08:08:47;;;;;;;;;;;6.90;99.90;;;;;;4972425;28;19930;-94
2023/03/26 08:11:19;;;;;;;;;;;6.90;99.90;;;;;;4975508;28;20386;-94
2023/03/26 08:13:45;;;;;;;;;;;7.00;99.90;;;;;;4970835;28;19993;-95
2023/03/26 08:16:34;;;;;;;;;;;6.90;99.90;;;;;;4981305;28;19945;-94
2023/03/26 08:19:00;;;;;;;;;;;7.50;99.90;;;;;;4962477;28;20340;-94
2023/03/26 08:21:27;;;;;;;;;;;7.00;99.90;;;;;;4975181;28;19930;-93
2023/03/26 08:23:53;;;;;;;;;;;7.10;99.90;;;;;;4977170;28;19981;-93
2023/03/26 08:26:28;;;;;;;;;;;7.60;99.90;;;;;;4977063;28;19932;-94
2023/03/26 08:28:54;;;;;;;;;;;7.90;99.90;;;;;;4979196;28;19933;-93
2023/03/26 08:31:26;;;;;;;;;;;7.20;99.90;;;;;;4994217;28;19930;-93
2023/03/26 08:33:51;;;;;;;;;;;7.00;99.90;;;;;;4978550;28;19980;-93
2023/03/26 08:36:17;;;;;;;;;;;7.00;99.90;;;;;;4965803;28;19925;-94
2023/03/26 08:38:42;;;;;;;;;;;7.60;99.90;;;;;;4963143;28;20012;-94
2023/03/26 08:41:11;;;;;;;;;;;7.00;99.90;;;;;;4961793;28;19925;-95
2023/03/26 08:43:40;;;;;;;;;;;7.00;99.90;;;;;;4979486;28;19926;-95
2023/03/26 08:46:09;;;;;;;;;;;7.30;99.90;;;;;;4978671;28;19934;-95
2023/03/26 08:48:34;;;;;;;;;;;6.30;99.90;;;;;;4979066;28;19957;-94
2023/03/26 08:51:06;;;;;;;;;;;7.60;99.90;;;;;;4976540;28;19934;-94
2023/03/26 08:53:35;;;;;;;;;;;7.40;99.90;;;;;;4990438;28;19926;-95
2023/03/26 08:56:00;;;;;;;;;;;7.40;99.90;;;;;;4973299;28;19969;-95
2023/03/26 08:58:26;;;;;;;;;;;9.10;99.90;;;;;;4970154;28;19930;-94
2023/03/26 09:00:52;;;;;;;;;;;7.50;99.90;;;;;;4981870;28;19926;-94
2023/03/26 09:03:36;;;;;;;;;;;6.80;99.90;;;;;;4975817;28;19933;-94
2023/03/26 09:06:02;;;;;;;;;;;7.70;99.90;;;;;;4991064;28;19930;-95
2023/03/26 09:09:06;;;;;;;;;;;7.80;99.90;;;;;;4974771;28;19941;-95
2023/03/26 09:11:53;;;;;;;;;;;8.40;99.90;;;;;;4925755;29;20340;-93
2023/03/26 09:14:22;;;;;;;;;;;8.50;99.90;;;;;;4916765;29;19994;-92
2023/03/26 09:16:56;;;;;;;;;;;8.20;99.90;;;;;;4955124;28;19980;-94
2023/03/26 09:19:41;;;;;;;;;;;8.10;99.90;;;;;;4974549;28;20460;-93
2023/03/26 09:22:24;;;;;;;;;;;8.00;99.90;;;;;;4979313;28;20389;-94
2023/03/26 09:25:01;;;;;;;;;;;8.00;99.90;;;;;;4982587;28;19958;-94
2023/03/26 09:27:38;;;;;;;;;;;7.70;99.90;;;;;;4971657;28;19926;-95
2023/03/26 09:30:16;;;;;;;;;;;8.50;99.90;;;;;;4973528;28;19948;-95
2023/03/26 09:32:45;;;;;;;;;;;8.10;99.90;;;;;;4995770;28;19926;-96
2023/03/26 09:35:11;;;;;;;;;;;8.10;99.90;;;;;;4972320;28;20052;-95
2023/03/26 09:37:49;;;;;;;;;;;8.10;99.90;;;;;;4963538;28;20428;-95
2023/03/26 09:40:21;;;;;;;;;;;8.50;99.90;;;;;;4982313;28;19985;-94
2023/03/26 09:43:15;;;;;;;;;;;8.50;99.90;;;;;;4979382;28;19981;-95
2023/03/26 09:46:07;;;;;;;;;;;9.00;99.90;;;;;;4966885;28;20017;-95
2023/03/26 09:48:33;;;;;;;;;;;8.10;99.90;;;;;;4966470;28;19984;-95
2023/03/26 09:51:15;;;;;;;;;;;8.50;99.90;;;;;;4972491;28;19926;-95
2023/03/26 09:53:47;;;;;;;;;;;8.10;99.90;;;;;;4971649;28;20320;-94
2023/03/26 09:56:16;;;;;;;;;;;8.00;99.90;;;;;;4974507;28;19929;-95
2023/03/26 09:59:04;;;;;;;;;;;8.40;99.90;;;;;;4976239;28;19926;-96
2023/03/26 10:01:49;;;;;;;;;;;8.10;99.90;;;;;;4979992;28;19910;-96
2023/03/26 10:04:26;;;;;;;;;;;8.40;99.90;;;;;;4999778;28;19930;-95
2023/03/26 10:06:58;;;;;;;;;;;8.20;99.90;;;;;;4979660;28;19932;-94
2023/03/26 10:09:37;;;;;;;;;;;8.30;99.90;;;;;;4976825;28;19925;-95
2023/03/26 10:12:09;;;;;;;;;;;6.30;99.90;;;;;;4977175;28;19961;-93
2023/03/26 10:14:44;;;;;;;;;;;8.30;99.90;;;;;;4991453;28;19981;-95
2023/03/26 10:17:14;;;;;;;;;;;8.00;99.90;;;;;;4968658;28;19930;-94
2023/03/26 10:19:52;;;;;;;;;;;8.30;99.90;;;;;;4979748;28;19945;-95
2023/03/26 10:22:36;;;;;;;;;;;8.30;99.90;;;;;;4989342;28;19941;-94
2023/03/26 10:25:02;;;;;;;;;;;8.60;99.90;;;;;;4960289;28;19926;-95
2023/03/26 10:27:39;;;;;;;;;;;8.20;99.90;;;;;;4979046;28;19980;-94
2023/03/26 10:30:21;;;;;;;;;;;8.50;99.90;;;;;;4973193;28;19936;-96
2023/03/26 10:33:12;;;;;;;;;;;8.80;99.90;;;;;;4967187;28;19926;-93
2023/03/26 10:35:52;;;;;;;;;;;8.40;99.90;;;;;;4978413;28;20274;-95
2023/03/26 10:38:40;;;;;;;;;;;8.20;99.90;;;;;;4969707;28;20342;-94
2023/03/26 10:41:20;;;;;;;;;;;8.60;99.90;;;;;;4971706;28;19986;-94
2023/03/26 10:43:55;;;;;;;;;;;8.20;99.90;;;;;;4988408;28;19926;-94
2023/03/26 10:46:34;;;;;;;;;;;8.30;99.90;;;;;;4964879;28;19942;-93
2023/03/26 10:49:19;;;;;;;;;;;8.30;99.90;;;;;;4960351;29;19942;-95
2023/03/26 10:52:08;;;;;;;;;;;8.60;99.90;;;;;;4972733;28;19925;-95
2023/03/26 10:54:40;;;;;;;;;;;11.00;99.90;;;;;;4956496;28;19944;-93
2023/03/26 10:57:11;;;;;;;;;;;8.20;99.90;;;;;;4982190;28;19934;-94
2023/03/26 10:59:37;;;;;;;;;;;8.40;99.90;;;;;;4980456;28;19973;-95
2023/03/26 11:02:05;;;;;;;;;;;8.80;99.90;;;;;;4976220;28;19926;-95
2023/03/26 11:04:54;;;;;;;;;;;8.90;99.90;;;;;;4976556;28;19926;-95
2023/03/26 11:07:46;;;;;;;;;;;10.80;99.90;;;;;;4962788;28;20341;-95
2023/03/26 11:10:15;;;;;;;;;;;10.20;99.90;;;;;;4968999;28;19926;-95
2023/03/26 11:12:51;;;;;;;;;;;8.90;99.90;;;;;;4971073;28;19926;-94
2023/03/26 11:15:23;;;;;;;;;;;9.20;99.90;;;;;;4975658;28;19926;-94
2023/03/26 11:18:00;;;;;;;;;;;8.90;99.90;;;;;;4974841;28;19930;-93
2023/03/26 11:21:20;;;;;;;;;;;9.00;99.90;;;;;;4979613;28;20153;-94
2023/03/26 11:24:05;;;;;;;;;;;8.60;99.90;;;;;;4971963;28;19941;-93
2023/03/26 11:26:36;;;;;;;;;;;8.30;99.90;;;;;;4968426;28;19926;-94
2023/03/26 11:29:14;;;;;;;;;;;8.50;99.90;;;;;;4969377;28;19922;-94
2023/03/26 11:31:59;;;;;;;;;;;8.50;99.90;;;;;;4964290;28;20001;-94
2023/03/26 11:34:27;;;;;;;;;;;8.70;99.90;;;;;;4979727;28;19930;-94
2023/03/26 11:36:55;;;;;;;;;;;8.60;99.90;;;;;;4971611;28;19932;-95
2023/03/26 11:39:34;;;;;;;;;;;8.50;99.90;;;;;;4969752;28;19927;-94
2023/03/26 11:42:06;;;;;;;;;;;10.90;99.90;;;;;;4973324;28;20473;-95
2023/03/26 11:44:36;;;;;;;;;;;8.70;99.90;;;;;;4975972;28;19930;-94
2023/03/26 11:47:07;;;;;;;;;;;9.30;99.90;;;;;;4973282;28;20016;-94
2023/03/26 11:49:33;;;;;;;;;;;8.50;99.90;;;;;;4959274;28;19930;-94
2023/03/26 11:52:00;;;;;;;;;;;8.50;99.90;;;;;;4956688;28;19926;-93
2023/03/26 11:54:26;;;;;;;;;;;8.40;99.90;;;;;;4946290;29;20002;-93
2023/03/26 11:56:56;;;;;;;;;;;8.40;99.90;;;;;;4964324;28;20420;-94
2023/03/26 11:59:40;;;;;;;;;;;8.40;99.90;;;;;;4973288;28;19958;-94
2023/03/26 12:02:08;;;;;;;;;;;7.10;99.90;;;;;;4967354;28;19926;-95
2023/03/26 12:04:42;;;;;;;;;;;8.60;99.90;;;;;;4966946;28;19985;-95
2023/03/26 12:07:13;;;;;;;;;;;8.50;99.90;;;;;;4971215;28;19953;-94
2023/03/26 12:09:51;;;;;;;;;;;8.50;99.90;;;;;;4974187;28;19936;-94
2023/03/26 12:12:26;;;;;;;;;;;10.40;99.90;;;;;;4973039;28;19933;-94
2023/03/26 12:14:53;;;;;;;;;;;10.10;99.90;;;;;;4979959;28;19998;-96
2023/03/26 12:17:28;;;;;;;;;;;10.60;99.90;;;;;;4985653;28;19926;-95
2023/03/26 12:19:54;;;;;;;;;;;9.10;99.90;;;;;;4971067;28;19930;-95
2023/03/26 12:22:34;;;;;;;;;;;8.80;99.90;;;;;;4969021;28;19926;-94
2023/03/26 12:25:05;;;;;;;;;;;8.70;99.90;;;;;;5001865;28;19926;-95
2023/03/26 12:27:31;;;;;;;;;;;9.00;99.90;;;;;;4969019;28;19929;-95
2023/03/26 12:30:03;;;;;;;;;;;8.80;99.90;;;;;;4953976;28;19972;-94
2023/03/26 12:32:34;;;;;;;;;;;11.20;99.90;;;;;;4978424;28;19981;-95
2023/03/26 12:35:04;;;;;;;;;;;9.20;99.90;;;;;;4979506;28;19972;-93
2023/03/26 12:37:33;;;;;;;;;;;8.70;99.90;;;;;;4980878;28;19936;-94
2023/03/26 12:40:20;;;;;;;;;;;8.70;99.90;;;;;;4980801;28;20594;-94
2023/03/26 12:43:10;;;;;;;;;;;8.70;99.90;;;;;;4973802;28;19977;-94
2023/03/26 12:45:41;;;;;;;;;;;6.60;99.90;;;;;;4950593;28;19910;-93
2023/03/26 12:48:08;;;;;;;;;;;8.60;99.90;;;;;;4968625;28;19947;-94
2023/03/26 12:50:53;;;;;;;;;;;8.50;99.90;;;;;;4967010;28;19930;-94
2023/03/26 12:53:28;;;;;;;;;;;8.60;99.90;;;;;;4974281;28;19952;-95
2023/03/26 12:56:16;;;;;;;;;;;8.90;99.90;;;;;;4978757;28;19932;-94
2023/03/26 12:59:04;;;;;;;;;;;8.80;99.90;;;;;;4980817;28;19986;-95
2023/03/26 13:01:33;;;;;;;;;;;8.20;99.90;;;;;;4968025;28;19942;-96
2023/03/26 13:03:59;;;;;;;;;;;8.50;99.90;;;;;;4973546;28;19941;-94
2023/03/26 13:06:29;;;;;;;;;;;8.40;99.90;;;;;;4984410;28;19997;-95
2023/03/26 13:09:06;;;;;;;;;;;7.20;99.90;;;;;;4975697;28;19953;-95
2023/03/26 13:11:50;;;;;;;;;;;8.90;99.70;;;;;;4972144;28;19927;-96
2023/03/26 13:14:35;;;;;;;;;;;8.90;98.50;;;;;;4976216;28;19941;-93
2023/03/26 13:17:12;;;;;;;;;;;9.20;96.10;;;;;;5006482;28;19926;-95
2023/03/26 13:19:50;;;;;;;;;;;9.00;98.00;;;;;;4974955;28;19926;-94
2023/03/26 13:22:23;;;;;;;;;;;9.00;98.40;;;;;;4988183;28;19934;-95
2023/03/26 13:24:58;;;;;;;;;;;9.20;96.20;;;;;;4980806;28;19937;-96
2023/03/26 13:27:33;;;;;;;;;;;10.00;96.20;;;;;;4982572;28;19957;-94
2023/03/26 13:30:01;;;;;;;;;;;6.80;96.50;;;;;;4973967;28;19926;-95
2023/03/26 13:32:39;;;;;;;;;;;7.90;97.60;;;;;;4977735;28;19974;-95
2023/03/26 13:35:05;;;;;;;;;;;8.70;99.30;;;;;;4975023;28;19930;-95
2023/03/26 13:37:35;;;;;;;;;;;8.80;99.90;;;;;;4972826;28;19930;-95
2023/03/26 13:40:05;;;;;;;;;;;8.60;99.90;;;;;;4971085;28;19926;-96
2023/03/26 13:42:41;;;;;;;;;;;7.00;99.90;;;;;;4976754;28;19937;-95
2023/03/26 13:45:13;;;;;;;;;;;8.60;99.90;;;;;;4970241;28;19926;-96
2023/03/26 13:47:42;;;;;;;;;;;8.40;99.90;;;;;;4982331;28;19925;-95
2023/03/26 13:50:28;;;;;;;;;;;8.60;99.90;;;;;;4975013;28;19986;-94
2023/03/26 13:53:12;;;;;;;;;;;8.50;99.90;;;;;;4959464;28;21012;-93
2023/03/26 13:55:44;;;;;;;;;;;8.40;99.90;;;;;;4975498;28;20295;-95
2023/03/26 13:58:13;;;;;;;;;;;8.60;99.90;;;;;;4980606;28;19989;-96
2023/03/26 14:00:46;;;;;;;;;;;8.50;99.90;;;;;;4973236;28;19952;-96
2023/03/26 14:03:17;;;;;;;;;;;8.30;99.90;;;;;;4975842;28;19989;-96
2023/03/26 14:05:45;;;;;;;;;;;8.50;99.90;;;;;;4968344;28;19926;-95
2023/03/26 14:08:31;;;;;;;;;;;8.60;99.90;;;;;;4965444;29;19950;-94
2023/03/26 14:11:05;;;;;;;;;;;8.30;99.10;;;;;;4978227;28;19941;-95
2023/03/26 14:13:39;;;;;;;;;;;8.70;97.20;;;;;;4994560;28;19937;-95
2023/03/26 14:16:15;;;;;;;;;;;8.50;98.80;;;;;;4981119;28;19937;-96
2023/03/26 14:18:51;;;;;;;;;;;8.70;99.00;;;;;;4986977;28;20073;-94
2023/03/26 14:21:33;;;;;;;;;;;8.90;96.40;;;;;;4973401;28;19972;-96
2023/03/26 14:24:01;;;;;;;;;;;9.10;96.50;;;;;;4984156;28;19926;-94
2023/03/26 14:26:39;;;;;;;;;;;8.70;97.80;;;;;;4985256;28;19927;-96
2023/03/26 14:29:11;;;;;;;;;;;8.60;98.80;;;;;;4976355;28;19937;-93
2023/03/26 14:31:55;;;;;;;;;;;8.50;99.90;;;;;;4979658;28;19933;-95
2023/03/26 14:34:41;;;;;;;;;;;8.50;99.40;;;;;;4980040;28;19969;-96
2023/03/26 14:37:19;;;;;;;;;;;10.30;98.90;;;;;;4981094;28;19937;-95
2023/03/26 14:39:51;;;;;;;;;;;8.60;97.50;;;;;;4978433;28;19930;-96
2023/03/26 14:42:21;;;;;;;;;;;8.40;97.00;;;;;;4986635;28;19933;-96
2023/03/26 14:45:00;;;;;;;;;;;8.20;98.10;;;;;;4980630;28;19953;-96
2023/03/26 14:47:26;;;;;;;;;;;7.10;96.10;;;;;;4985996;28;19934;-96
2023/03/26 14:49:52;;;;;;;;;;;8.20;98.20;;;;;;4973661;28;19926;-95
2023/03/26 14:52:18;;;;;;;;;;;8.10;99.40;;;;;;4973629;28;20021;-96